Time,TemperatureF,DewpointF,PressureIn,WindDirection,WindDirectionDegrees,WindSpeedMPH,WindSpeedGustMPH,Humidity,HourlyPrecipIn,Conditions,Clouds,dailyrainin,SolarRadiationWatts/m^2,SoftwareType,DateUTC
2013-04-24 00:02:00,31.0,15.0,30.11,NW,314,1.0,2.0,51,-99.99,,,-99.99,-0.100000,,2013-04-24 06:02:00,
2013-04-24 00:11:00,31.0,15.0,30.11,East,85,2.0,4.0,51,-99.99,,,-99.99,0.000000,,2013-04-24 06:11:00,
2013-04-24 00:21:00,30.0,16.0,30.11,East,95,5.0,6.0,53,-99.99,,,-99.99,-0.100000,,2013-04-24 06:21:00,
2013-04-24 00:32:00,30.0,15.0,30.11,East,84,4.0,5.0,53,-99.99,,,-99.99,0.000000,,2013-04-24 06:32:00,
2013-04-24 00:41:00,28.0,15.0,30.11,ESE,118,3.0,5.0,58,-99.99,,,-99.99,-0.100000,,2013-04-24 06:41:00,
2013-04-24 00:51:00,29.0,15.0,30.11,ESE,114,6.0,6.0,55,-99.99,,,-99.99,-0.100000,,2013-04-24 06:51:00,
2013-04-24 01:02:00,30.0,14.0,30.12,SE,132,5.0,5.0,51,-99.99,,,-99.99,0.000000,,2013-04-24 07:02:00,
2013-04-24 01:11:00,30.0,15.0,30.12,SE,146,3.0,4.0,52,-99.99,,,-99.99,-0.100000,,2013-04-24 07:11:00,
2013-04-24 01:21:00,29.0,15.0,30.12,South,175,4.0,5.0,54,-99.99,,,-99.99,0.000000,,2013-04-24 07:21:00,
2013-04-24 01:31:00,29.0,14.0,30.13,ENE,73,3.0,4.0,53,-99.99,,,-99.99,0.000000,,2013-04-24 07:31:00,
2013-04-24 01:41:00,29.0,15.0,30.13,NE,50,7.0,13.0,54,-99.99,,,-99.99,0.000000,,2013-04-24 07:41:00,
2013-04-24 01:51:00,30.0,16.0,30.13,NE,39,8.0,11.0,56,-99.99,,,-99.99,-0.100000,,2013-04-24 07:51:00,
2013-04-24 02:01:00,29.0,15.0,30.13,ENE,77,7.0,9.0,57,-99.99,,,-99.99,0.000000,,2013-04-24 08:01:00,
2013-04-24 02:11:00,28.0,16.0,30.14,ENE,73,4.0,5.0,59,-99.99,,,-99.99,0.000000,,2013-04-24 08:11:00,
2013-04-24 02:21:00,26.0,15.0,30.14,East,83,4.0,5.0,63,-99.99,,,-99.99,0.000000,,2013-04-24 08:21:00,
2013-04-24 02:33:00,25.0,15.0,30.14,ESE,102,6.0,7.0,64,-99.99,,,-99.99,0.000000,,2013-04-24 08:33:00,
2013-04-24 02:42:00,26.0,15.0,30.14,ENE,68,7.0,8.0,63,-99.99,,,-99.99,0.000000,,2013-04-24 08:42:00,
2013-04-24 02:51:00,26.0,15.0,30.14,East,89,6.0,8.0,62,-99.99,,,-99.99,0.000000,,2013-04-24 08:51:00,
2013-04-24 03:01:00,26.0,15.0,30.14,East,96,5.0,9.0,63,-99.99,,,-99.99,0.100000,,2013-04-24 09:01:00,
2013-04-24 03:11:00,25.0,15.0,30.14,East,92,7.0,8.0,64,-99.99,,,-99.99,0.000000,,2013-04-24 09:11:00,
2013-04-24 03:21:00,27.0,15.0,30.14,NE,42,6.0,9.0,60,-99.99,,,-99.99,-0.100000,,2013-04-24 09:21:00,
2013-04-24 03:32:00,27.0,15.0,30.14,ENE,64,8.0,10.0,57,-99.99,,,-99.99,-0.100000,,2013-04-24 09:32:00,
2013-04-24 03:42:00,28.0,15.0,30.14,ENE,61,8.0,9.0,56,-99.99,,,-99.99,0.000000,,2013-04-24 09:42:00,
2013-04-24 03:53:00,28.0,15.0,30.15,ENE,74,6.0,7.0,56,-99.99,,,-99.99,0.000000,,2013-04-24 09:53:00,
2013-04-24 04:02:00,25.0,15.0,30.15,East,81,6.0,8.0,63,-99.99,,,-99.99,0.200000,,2013-04-24 10:02:00,
2013-04-24 04:12:00,27.0,15.0,30.15,ENE,68,6.0,8.0,59,-99.99,,,-99.99,0.000000,,2013-04-24 10:12:00,
2013-04-24 04:22:00,26.0,14.0,30.15,East,88,5.0,6.0,62,-99.99,,,-99.99,0.000000,,2013-04-24 10:22:00,
2013-04-24 04:32:00,24.0,14.0,30.15,East,87,6.0,8.0,65,-99.99,,,-99.99,0.000000,,2013-04-24 10:32:00,
2013-04-24 04:42:00,25.0,14.0,30.15,East,92,7.0,8.0,63,-99.99,,,-99.99,0.000000,,2013-04-24 10:42:00,
2013-04-24 04:52:00,24.0,14.0,30.16,ENE,73,2.0,4.0,63,-99.99,,,-99.99,0.000000,,2013-04-24 10:52:00,
2013-04-24 05:02:00,22.0,14.0,30.16,ESE,110,1.0,3.0,71,-99.99,,,-99.99,0.000000,,2013-04-24 11:02:00,
2013-04-24 05:11:00,22.0,14.0,30.16,ESE,121,5.0,5.0,70,-99.99,,,-99.99,0.000000,,2013-04-24 11:11:00,
2013-04-24 05:21:00,22.0,14.0,30.16,SE,129,4.0,5.0,70,-99.99,,,-99.99,0.000000,,2013-04-24 11:21:00,
2013-04-24 05:31:00,22.0,13.0,30.17,ESE,111,5.0,6.0,68,-99.99,,,-99.99,0.000000,,2013-04-24 11:31:00,
2013-04-24 05:42:00,22.0,13.0,30.17,ENE,74,4.0,5.0,67,-99.99,,,-99.99,0.000000,,2013-04-24 11:42:00,
2013-04-24 05:52:00,22.0,14.0,30.17,East,93,6.0,8.0,70,-99.99,,,-99.99,0.000000,,2013-04-24 11:52:00,
2013-04-24 06:01:00,23.0,14.0,30.17,East,97,7.0,8.0,67,-99.99,,,-99.99,0.000000,,2013-04-24 12:01:00,
2013-04-24 06:11:00,22.0,14.0,30.17,ESE,115,6.0,6.0,69,-99.99,,,-99.99,0.100000,,2013-04-24 12:11:00,
2013-04-24 06:22:00,22.0,14.0,30.17,East,91,4.0,5.0,70,-99.99,,,-99.99,0.000000,,2013-04-24 12:22:00,
2013-04-24 06:31:00,23.0,14.0,30.18,East,80,3.0,4.0,67,-99.99,,,-99.99,0.000000,,2013-04-24 12:31:00,
2013-04-24 06:42:00,21.0,14.0,30.18,ENE,67,3.0,4.0,74,-99.99,,,-99.99,0.900000,,2013-04-24 12:42:00,
2013-04-24 06:51:00,20.0,13.0,30.18,ENE,74,3.0,3.0,73,-99.99,,,-99.99,3.400000,,2013-04-24 12:51:00,
2013-04-24 07:01:00,23.0,14.0,30.19,ENE,67,3.0,4.0,68,-99.99,,,-99.99,9.400000,,2013-04-24 13:01:00,
2013-04-24 07:12:00,23.0,14.0,30.19,NE,47,3.0,4.0,67,-99.99,,,-99.99,23.100000,,2013-04-24 13:12:00,
2013-04-24 07:21:00,21.0,14.0,30.20,NE,45,3.0,3.0,73,-99.99,,,-99.99,37.799999,,2013-04-24 13:21:00,
2013-04-24 07:31:00,21.0,14.0,30.20,East,93,2.0,4.0,74,-99.99,,,-99.99,69.199997,,2013-04-24 13:31:00,
2013-04-24 07:41:00,22.0,15.0,30.21,ESE,107,3.0,4.0,72,-99.99,,,-99.99,99.000000,,2013-04-24 13:41:00,
2013-04-24 07:51:00,24.0,15.0,30.21,ESE,110,4.0,4.0,68,-99.99,,,-99.99,127.000000,,2013-04-24 13:51:00,
2013-04-24 08:01:00,25.0,16.0,30.21,ESE,122,3.0,4.0,68,-99.99,,,-99.99,157.000000,,2013-04-24 14:01:00,
2013-04-24 08:11:00,26.0,17.0,30.22,ESE,110,2.0,2.0,66,-99.99,,,-99.99,187.600006,,2013-04-24 14:11:00,
2013-04-24 08:21:00,29.0,17.0,30.22,ESE,112,1.0,2.0,60,-99.99,,,-99.99,218.399994,,2013-04-24 14:21:00,
2013-04-24 08:32:00,31.0,18.0,30.22,SSW,202,2.0,2.0,59,-99.99,,,-99.99,249.600006,,2013-04-24 14:32:00,
2013-04-24 08:41:00,32.0,18.0,30.23,SSE,153,1.0,2.0,56,-99.99,,,-99.99,281.200012,,2013-04-24 14:41:00,
2013-04-24 08:51:00,33.0,18.0,30.23,East,94,1.0,2.0,53,-99.99,,,-99.99,315.000000,,2013-04-24 14:51:00,
2013-04-24 09:01:00,34.0,17.0,30.23,NE,38,1.0,2.0,50,-99.99,,,-99.99,348.500000,,2013-04-24 15:01:00,
2013-04-24 09:11:00,35.0,16.0,30.24,North,11,2.0,3.0,47,-99.99,,,-99.99,381.299988,,2013-04-24 15:11:00,
2013-04-24 09:21:00,36.0,17.0,30.24,NW,311,2.0,4.0,44,-99.99,,,-99.99,413.399994,,2013-04-24 15:21:00,
2013-04-24 09:32:00,37.0,17.0,30.24,WNW,298,3.0,4.0,44,-99.99,,,-99.99,444.799988,,2013-04-24 15:32:00,
2013-04-24 09:42:00,38.0,17.0,30.25,WNW,297,4.0,5.0,42,-99.99,,,-99.99,476.799988,,2013-04-24 15:42:00,
2013-04-24 09:52:00,39.0,18.0,30.25,NNW,337,4.0,5.0,41,-99.99,,,-99.99,507.299988,,2013-04-24 15:52:00,
2013-04-24 10:03:00,39.0,18.0,30.25,NW,319,4.0,6.0,42,-99.99,,,-99.99,537.700012,,2013-04-24 16:03:00,
2013-04-24 10:12:00,40.0,19.0,30.25,NNW,345,4.0,6.0,41,-99.99,,,-99.99,568.000000,,2013-04-24 16:12:00,
2013-04-24 10:23:00,41.0,20.0,30.26,NNW,343,4.0,7.0,41,-99.99,,,-99.99,596.599976,,2013-04-24 16:23:00,
2013-04-24 10:32:00,43.0,18.0,30.26,North,350,3.0,6.0,37,-99.99,,,-99.99,622.900024,,2013-04-24 16:32:00,
2013-04-24 10:42:00,44.0,16.0,30.26,North,1,5.0,8.0,33,-99.99,,,-99.99,651.599976,,2013-04-24 16:42:00,
2013-04-24 10:52:00,45.0,15.0,30.26,NNW,340,3.0,6.0,30,-99.99,,,-99.99,678.000000,,2013-04-24 16:52:00,
2013-04-24 11:02:00,45.0,16.0,30.26,NNW,346,6.0,10.0,30,-99.99,,,-99.99,702.599976,,2013-04-24 17:02:00,
2013-04-24 11:12:00,46.0,15.0,30.26,NE,54,10.0,14.0,28,-99.99,,,-99.99,724.700012,,2013-04-24 17:12:00,
2013-04-24 11:22:00,46.0,13.0,30.26,ENE,74,2.0,6.0,26,-99.99,,,-99.99,749.400024,,2013-04-24 17:22:00,
2013-04-24 11:32:00,46.0,14.0,30.26,NNE,28,7.0,11.0,27,-99.99,,,-99.99,771.200012,,2013-04-24 17:32:00,
2013-04-24 11:51:00,47.0,12.0,30.26,North,355,5.0,9.0,24,-99.99,,,-99.99,814.000000,,2013-04-24 17:51:00,
2013-04-24 12:02:00,47.0,13.0,30.26,NE,37,5.0,10.0,24,-99.99,,,-99.99,831.000000,,2013-04-24 18:02:00,
2013-04-24 12:12:00,48.0,13.0,30.25,NNW,340,5.0,8.0,23,-99.99,,,-99.99,847.000000,,2013-04-24 18:12:00,
2013-04-24 12:21:00,48.0,14.0,30.25,NE,55,4.0,7.0,25,-99.99,,,-99.99,861.000000,,2013-04-24 18:21:00,
2013-04-24 12:32:00,48.0,13.0,30.25,NE,38,8.0,12.0,24,-99.99,,,-99.99,873.000000,,2013-04-24 18:32:00,
2013-04-24 12:42:00,48.0,12.0,30.24,West,279,4.0,6.0,22,-99.99,,,-99.99,883.000000,,2013-04-24 18:42:00,
2013-04-24 12:52:00,48.0,14.0,30.24,South,190,4.0,6.0,24,-99.99,,,-99.99,891.000000,,2013-04-24 18:52:00,
2013-04-24 13:01:00,49.0,13.0,30.24,NW,323,5.0,9.0,23,-99.99,,,-99.99,899.000000,,2013-04-24 19:01:00,
2013-04-24 13:11:00,49.0,14.0,30.23,North,354,8.0,13.0,23,-99.99,,,-99.99,905.000000,,2013-04-24 19:11:00,
2013-04-24 13:21:00,50.0,12.0,30.23,WSW,243,8.0,12.0,21,-99.99,,,-99.99,913.000000,,2013-04-24 19:21:00,
2013-04-24 13:31:00,51.0,13.0,30.22,West,280,5.0,8.0,22,-99.99,,,-99.99,914.000000,,2013-04-24 19:31:00,
2013-04-24 13:41:00,50.0,13.0,30.22,SW,227,6.0,10.0,22,-99.99,,,-99.99,914.000000,,2013-04-24 19:41:00,
2013-04-24 13:52:00,51.0,14.0,30.21,NW,317,5.0,11.0,23,-99.99,,,-99.99,916.000000,,2013-04-24 19:52:00,
2013-04-24 14:01:00,51.0,12.0,30.21,SW,230,7.0,12.0,20,-99.99,,,-99.99,915.000000,,2013-04-24 20:01:00,
2013-04-24 14:11:00,51.0,12.0,30.21,West,272,9.0,16.0,20,-99.99,,,-99.99,914.000000,,2013-04-24 20:11:00,
2013-04-24 14:21:00,51.0,10.0,30.21,West,280,5.0,8.0,18,-99.99,,,-99.99,908.000000,,2013-04-24 20:21:00,
2013-04-24 14:32:00,52.0,11.0,30.21,NW,307,9.0,15.0,18,-99.99,,,-99.99,899.000000,,2013-04-24 20:32:00,
2013-04-24 14:42:00,52.0,9.0,30.21,WNW,287,7.0,11.0,17,-99.99,,,-99.99,890.000000,,2013-04-24 20:42:00,
2013-04-24 14:51:00,51.0,10.0,30.20,NNW,327,3.0,9.0,18,-99.99,,,-99.99,883.000000,,2013-04-24 20:51:00,
2013-04-24 15:02:00,52.0,11.0,30.20,WNW,302,4.0,6.0,19,-99.99,,,-99.99,868.000000,,2013-04-24 21:02:00,
2013-04-24 15:11:00,52.0,14.0,30.20,SE,130,4.0,6.0,21,-99.99,,,-99.99,853.000000,,2013-04-24 21:11:00,
2013-04-24 15:21:00,53.0,15.0,30.20,WSW,248,10.0,13.0,22,-99.99,,,-99.99,839.000000,,2013-04-24 21:21:00,
2013-04-24 15:32:00,53.0,15.0,30.20,West,278,7.0,12.0,21,-99.99,,,-99.99,822.000000,,2013-04-24 21:32:00,
2013-04-24 15:42:00,53.0,14.0,30.19,WSW,239,4.0,8.0,21,-99.99,,,-99.99,806.000000,,2013-04-24 21:42:00,
2013-04-24 15:52:00,53.0,15.0,30.19,WSW,239,5.0,10.0,21,-99.99,,,-99.99,784.900024,,2013-04-24 21:52:00,
2013-04-24 16:02:00,54.0,14.0,30.18,WNW,298,6.0,8.0,20,-99.99,,,-99.99,765.299988,,2013-04-24 22:02:00,
2013-04-24 16:12:00,53.0,14.0,30.18,SW,234,4.0,8.0,20,-99.99,,,-99.99,744.000000,,2013-04-24 22:12:00,
2013-04-24 16:22:00,54.0,12.0,30.18,WNW,283,6.0,10.0,19,-99.99,,,-99.99,722.700012,,2013-04-24 22:22:00,
2013-04-24 16:32:00,55.0,11.0,30.17,WSW,241,8.0,14.0,17,-99.99,,,-99.99,702.299988,,2013-04-24 22:32:00,
2013-04-24 16:42:00,53.0,10.0,30.17,SSE,164,3.0,7.0,17,-99.99,,,-99.99,679.000000,,2013-04-24 22:42:00,
2013-04-24 16:52:00,54.0,10.0,30.16,West,267,6.0,10.0,17,-99.99,,,-99.99,653.200012,,2013-04-24 22:52:00,
2013-04-24 17:02:00,55.0,5.0,30.16,WNW,293,10.0,14.0,13,-99.99,,,-99.99,629.400024,,2013-04-24 23:02:00,
2013-04-24 17:11:00,55.0,6.0,30.16,WSW,247,10.0,14.0,13,-99.99,,,-99.99,600.400024,,2013-04-24 23:11:00,
2013-04-24 17:21:00,54.0,2.0,30.15,WNW,291,6.0,11.0,11,-99.99,,,-99.99,573.599976,,2013-04-24 23:21:00,
2013-04-24 17:32:00,55.0,2.0,30.15,WNW,283,6.0,10.0,11,-99.99,,,-99.99,545.299988,,2013-04-24 23:32:00,
2013-04-24 17:41:00,55.0,5.0,30.15,WSW,257,9.0,13.0,12,-99.99,,,-99.99,514.099976,,2013-04-24 23:41:00,
2013-04-24 17:51:00,54.0,8.0,30.14,WSW,237,11.0,14.0,15,-99.99,,,-99.99,481.299988,,2013-04-24 23:51:00,
2013-04-24 18:01:00,54.0,10.0,30.14,WSW,240,9.0,12.0,16,-99.99,,,-99.99,449.100006,,2013-04-25 00:01:00,
2013-04-24 18:12:00,54.0,11.0,30.14,WSW,251,9.0,13.0,17,-99.99,,,-99.99,416.600006,,2013-04-25 00:12:00,
2013-04-24 18:22:00,54.0,10.0,30.13,WSW,241,7.0,11.0,16,-99.99,,,-99.99,384.899994,,2013-04-25 00:22:00,
2013-04-24 18:32:00,54.0,10.0,30.13,SW,234,10.0,14.0,16,-99.99,,,-99.99,353.200012,,2013-04-25 00:32:00,
2013-04-24 18:41:00,54.0,10.0,30.13,WSW,240,10.0,14.0,16,-99.99,,,-99.99,317.799988,,2013-04-25 00:41:00,
2013-04-24 18:51:00,54.0,7.0,30.12,SW,233,11.0,13.0,14,-99.99,,,-99.99,288.200012,,2013-04-25 00:51:00,
2013-04-24 19:01:00,54.0,7.0,30.12,WSW,238,11.0,13.0,14,-99.99,,,-99.99,256.899994,,2013-04-25 01:01:00,
2013-04-24 19:11:00,54.0,7.0,30.12,SW,231,9.0,10.0,14,-99.99,,,-99.99,226.199997,,2013-04-25 01:11:00,
2013-04-24 19:22:00,54.0,8.0,30.12,SW,227,8.0,10.0,15,-99.99,,,-99.99,188.800003,,2013-04-25 01:22:00,
2013-04-24 19:32:00,54.0,10.0,30.11,SW,227,7.0,9.0,16,-99.99,,,-99.99,162.600006,,2013-04-25 01:32:00,
2013-04-24 19:41:00,53.0,10.0,30.11,SW,222,8.0,9.0,17,-99.99,,,-99.99,135.800003,,2013-04-25 01:41:00,
2013-04-24 19:52:00,53.0,13.0,30.11,SW,217,6.0,7.0,20,-99.99,,,-99.99,107.000000,,2013-04-25 01:52:00,
2013-04-24 20:01:00,51.0,13.0,30.10,SW,229,6.0,7.0,21,-99.99,,,-99.99,73.800003,,2013-04-25 02:01:00,
2013-04-24 20:11:00,50.0,16.0,30.10,SSW,209,5.0,5.0,25,-99.99,,,-99.99,45.799999,,2013-04-25 02:11:00,
2013-04-24 20:21:00,48.0,17.0,30.10,South,190,5.0,6.0,29,-99.99,,,-99.99,24.600000,,2013-04-25 02:21:00,
2013-04-24 20:32:00,47.0,15.0,30.10,South,177,6.0,6.0,27,-99.99,,,-99.99,11.200000,,2013-04-25 02:32:00,
2013-04-24 20:41:00,47.0,15.0,30.10,South,177,6.0,6.0,27,-99.99,,,-99.99,11.200000,,2013-04-25 02:41:00,
2013-04-24 20:51:00,47.0,15.0,30.10,South,177,6.0,6.0,27,-99.99,,,-99.99,11.200000,,2013-04-25 02:51:00,
2013-04-24 21:02:00,44.0,14.0,30.10,SSE,161,8.0,9.0,29,-99.99,,,-99.99,0.200000,,2013-04-25 03:02:00,
2013-04-24 21:11:00,44.0,14.0,30.10,SSE,165,9.0,9.0,29,-99.99,,,-99.99,0.000000,,2013-04-25 03:11:00,
2013-04-24 21:21:00,44.0,13.0,30.09,SSE,165,9.0,10.0,29,-99.99,,,-99.99,-0.100000,,2013-04-25 03:21:00,
2013-04-24 21:32:00,43.0,14.0,30.09,SSE,163,9.0,10.0,30,-99.99,,,-99.99,0.000000,,2013-04-25 03:32:00,
2013-04-24 21:42:00,44.0,13.0,30.09,SSE,161,9.0,11.0,28,-99.99,,,-99.99,-0.100000,,2013-04-25 03:42:00,
2013-04-24 21:52:00,44.0,13.0,30.10,SSE,160,10.0,11.0,29,-99.99,,,-99.99,-0.200000,,2013-04-25 03:52:00,
2013-04-24 22:03:00,45.0,13.0,30.10,SSE,163,9.0,11.0,27,-99.99,,,-99.99,-0.100000,,2013-04-25 04:03:00,
2013-04-24 22:12:00,44.0,13.0,30.10,SSE,165,10.0,11.0,28,-99.99,,,-99.99,0.000000,,2013-04-25 04:12:00,
2013-04-24 22:22:00,43.0,13.0,30.09,SSE,165,10.0,11.0,29,-99.99,,,-99.99,0.000000,,2013-04-25 04:22:00,
2013-04-24 22:32:00,44.0,13.0,30.09,SSE,165,10.0,11.0,29,-99.99,,,-99.99,-0.100000,,2013-04-25 04:32:00,
2013-04-24 22:42:00,43.0,13.0,30.09,SSE,165,10.0,11.0,29,-99.99,,,-99.99,-0.100000,,2013-04-25 04:42:00,
2013-04-24 22:52:00,43.0,13.0,30.09,SSE,165,9.0,11.0,28,-99.99,,,-99.99,-0.100000,,2013-04-25 04:52:00,
2013-04-24 23:02:00,42.0,14.0,30.08,SSE,166,8.0,10.0,31,-99.99,,,-99.99,0.000000,,2013-04-25 05:02:00,
2013-04-24 23:11:00,37.0,16.0,30.08,SSE,160,6.0,9.0,42,-99.99,,,-99.99,-0.100000,,2013-04-25 05:11:00,
2013-04-24 23:21:00,39.0,14.0,30.08,SSE,163,8.0,11.0,35,-99.99,,,-99.99,0.100000,,2013-04-25 05:21:00,
2013-04-24 23:31:00,40.0,16.0,30.08,SSE,166,4.0,7.0,36,-99.99,,,-99.99,-0.100000,,2013-04-25 05:31:00,
2013-04-24 23:42:00,37.0,16.0,30.08,South,183,3.0,5.0,42,-99.99,,,-99.99,0.000000,,2013-04-25 05:42:00,
2013-04-24 23:51:00,40.0,16.0,30.08,South,179,3.0,5.0,39,-99.99,,,-99.99,-0.100000,,2013-04-25 05:51:00,